RPA5814 KBOS-KJFK
Flight info
| Callsign | RPA5814 |
|---|---|
| Flight time | 0h 40m |
| Altitude | 22000 |
| Route | SSOXS7 SSOXS BUZRD SEY PARCH4 |
| Aircraft | E75L/M-SDE3GILORVW/S |
Departure
| Time | 2026-05-04 21:20 |
|---|---|
| Airport | Boston Logan International Airport (KBOS) |
Arrival
| Time | 2026-05-04 22:01 |
|---|---|
| Airport | John F. Kennedy International Airport (KJFK) |
| Time | Latitude | Longitude | Altitude | Speed | Heading |
|---|---|---|---|---|---|
| 2026-05-04 20:58 | 42.36385 | -71.02044 | 16 ft | 0 kts | 306° |
| 2026-05-04 21:07 | 42.36386 | -71.02044 | 16 ft | 0 kts | 306° |
| 2026-05-04 21:09 | 42.36379 | -71.02031 | 16 ft | 2 kts | 306° |
| 2026-05-04 21:09 | 42.36370 | -71.02014 | 16 ft | 2 kts | 306° |
| 2026-05-04 21:09 | 42.36361 | -71.01998 | 16 ft | 2 kts | 306° |
| 2026-05-04 21:09 | 42.36357 | -71.01991 | 16 ft | 0 kts | 306° |
| 2026-05-04 21:10 | 42.36359 | -71.02009 | 15 ft | 2 kts | 243° |
| 2026-05-04 21:10 | 42.36342 | -71.02022 | 16 ft | 5 kts | 206° |
| 2026-05-04 21:10 | 42.36308 | -71.02047 | 15 ft | 4 kts | 222° |
| 2026-05-04 21:10 | 42.36291 | -71.02085 | 15 ft | 4 kts | 255° |
| 2026-05-04 21:11 | 42.36288 | -71.02101 | 15 ft | 0 kts | 253° |
| 2026-05-04 21:13 | 42.36285 | -71.02116 | 15 ft | 2 kts | 253° |
| 2026-05-04 21:13 | 42.36277 | -71.02153 | 15 ft | 5 kts | 254° |
| 2026-05-04 21:13 | 42.36264 | -71.02211 | 16 ft | 8 kts | 248° |
| 2026-05-04 21:14 | 42.36206 | -71.02269 | 15 ft | 13 kts | 198° |
| 2026-05-04 21:14 | 42.36103 | -71.02235 | 16 ft | 18 kts | 127° |
| 2026-05-04 21:14 | 42.36033 | -71.02082 | 17 ft | 19 kts | 121° |
| 2026-05-04 21:14 | 42.35967 | -71.01923 | 19 ft | 19 kts | 122° |
| 2026-05-04 21:15 | 42.35910 | -71.01751 | 19 ft | 21 kts | 102° |
| 2026-05-04 21:15 | 42.35891 | -71.01565 | 21 ft | 13 kts | 67° |
| 2026-05-04 21:15 | 42.35978 | -71.01505 | 19 ft | 16 kts | 20° |
| 2026-05-04 21:15 | 42.36100 | -71.01445 | 19 ft | 20 kts | 19° |
| 2026-05-04 21:16 | 42.36239 | -71.01379 | 19 ft | 21 kts | 20° |
| 2026-05-04 21:16 | 42.36382 | -71.01310 | 19 ft | 21 kts | 20° |
| 2026-05-04 21:16 | 42.36527 | -71.01240 | 18 ft | 22 kts | 19° |
| 2026-05-04 21:16 | 42.36684 | -71.01163 | 15 ft | 24 kts | 20° |
| 2026-05-04 21:17 | 42.36808 | -71.01169 | 15 ft | 17 kts | 317° |
| 2026-05-04 21:17 | 42.36900 | -71.01212 | 15 ft | 15 kts | 41° |
| 2026-05-04 21:17 | 42.36985 | -71.01111 | 15 ft | 16 kts | 31° |
| 2026-05-04 21:17 | 42.37095 | -71.01038 | 14 ft | 18 kts | 25° |
| 2026-05-04 21:18 | 42.37215 | -71.00960 | 12 ft | 19 kts | 26° |
| 2026-05-04 21:18 | 42.37344 | -71.00884 | 12 ft | 20 kts | 19° |
| 2026-05-04 21:18 | 42.37476 | -71.00819 | 12 ft | 20 kts | 20° |
| 2026-05-04 21:18 | 42.37613 | -71.00754 | 12 ft | 21 kts | 23° |
| 2026-05-04 21:19 | 42.37754 | -71.00687 | 12 ft | 21 kts | 19° |
| 2026-05-04 21:19 | 42.37837 | -71.00588 | 12 ft | 14 kts | 101° |
| 2026-05-04 21:19 | 42.37784 | -71.00481 | 12 ft | 15 kts | 175° |
| 2026-05-04 21:19 | 42.37630 | -71.00551 | 12 ft | 49 kts | 201° |
| 2026-05-04 21:20 | 42.37087 | -71.00813 | 14 ft | 114 kts | 200° |
| 2026-05-04 21:20 | 42.36178 | -71.01246 | 181 ft | 148 kts | 203° |
| 2026-05-04 21:20 | 42.35194 | -71.01656 | 672 ft | 160 kts | 189° |
| 2026-05-04 21:20 | 42.34074 | -71.01211 | 1257 ft | 183 kts | 147° |
| 2026-05-04 21:21 | 42.33300 | -70.99799 | 1804 ft | 201 kts | 128° |
| 2026-05-04 21:21 | 42.32412 | -70.98233 | 2086 ft | 216 kts | 149° |
| 2026-05-04 21:21 | 42.31278 | -70.96798 | 2570 ft | 240 kts | 125° |
| 2026-05-04 21:21 | 42.30927 | -70.94540 | 3184 ft | 262 kts | 84° |
| 2026-05-04 21:22 | 42.31419 | -70.92058 | 3624 ft | 283 kts | 75° |
| 2026-05-04 21:22 | 42.31926 | -70.89457 | 4125 ft | 297 kts | 77° |
| 2026-05-04 21:22 | 42.32379 | -70.86716 | 4857 ft | 302 kts | 78° |
| 2026-05-04 21:22 | 42.32407 | -70.83901 | 5648 ft | 301 kts | 108° |
| 2026-05-04 21:23 | 42.31387 | -70.81513 | 6403 ft | 296 kts | 141° |
| 2026-05-04 21:23 | 42.29641 | -70.80242 | 7122 ft | 285 kts | 175° |
| 2026-05-04 21:23 | 42.27728 | -70.80420 | 7766 ft | 275 kts | 204° |
| 2026-05-04 21:23 | 42.25919 | -70.81271 | 8418 ft | 279 kts | 205° |
| 2026-05-04 21:24 | 42.24093 | -70.82143 | 9037 ft | 284 kts | 205° |
| 2026-05-04 21:24 | 42.22191 | -70.82922 | 9686 ft | 293 kts | 195° |
| 2026-05-04 21:24 | 42.20134 | -70.83108 | 10332 ft | 302 kts | 183° |
| 2026-05-04 21:24 | 42.18010 | -70.82901 | 10913 ft | 311 kts | 178° |
| 2026-05-04 21:25 | 42.15837 | -70.82503 | 11355 ft | 323 kts | 175° |
| 2026-05-04 21:25 | 42.13580 | -70.82002 | 11763 ft | 334 kts | 174° |
| 2026-05-04 21:25 | 42.11253 | -70.81448 | 12171 ft | 345 kts | 173° |
| 2026-05-04 21:25 | 42.08867 | -70.80862 | 12675 ft | 351 kts | 173° |
| 2026-05-04 21:26 | 42.06443 | -70.80263 | 13274 ft | 354 kts | 173° |
| 2026-05-04 21:26 | 42.04021 | -70.79661 | 13893 ft | 356 kts | 173° |
| 2026-05-04 21:26 | 42.01613 | -70.79063 | 14526 ft | 358 kts | 173° |
| 2026-05-04 21:26 | 41.99133 | -70.78447 | 15130 ft | 360 kts | 173° |
| 2026-05-04 21:27 | 41.96677 | -70.77838 | 15721 ft | 363 kts | 173° |
| 2026-05-04 21:27 | 41.94193 | -70.77222 | 16292 ft | 368 kts | 173° |
| 2026-05-04 21:27 | 41.91667 | -70.76598 | 17016 ft | 373 kts | 173° |
| 2026-05-04 21:27 | 41.89088 | -70.75959 | 17860 ft | 375 kts | 173° |
| 2026-05-04 21:28 | 41.86511 | -70.75321 | 18670 ft | 377 kts | 173° |
| 2026-05-04 21:28 | 41.83945 | -70.75146 | 19279 ft | 373 kts | 194° |
| 2026-05-04 21:28 | 41.81532 | -70.76315 | 19880 ft | 370 kts | 212° |
| 2026-05-04 21:28 | 41.79258 | -70.77973 | 20494 ft | 375 kts | 213° |
| 2026-05-04 21:29 | 41.76978 | -70.79669 | 21107 ft | 381 kts | 213° |
| 2026-05-04 21:29 | 41.74636 | -70.81422 | 21728 ft | 384 kts | 213° |
| 2026-05-04 21:29 | 41.72316 | -70.83162 | 21888 ft | 391 kts | 213° |
| 2026-05-04 21:29 | 41.69905 | -70.84972 | 21924 ft | 411 kts | 213° |
| 2026-05-04 21:30 | 41.67359 | -70.86879 | 21921 ft | 426 kts | 213° |
| 2026-05-04 21:30 | 41.64771 | -70.88814 | 21909 ft | 428 kts | 213° |
| 2026-05-04 21:30 | 41.62159 | -70.90766 | 21901 ft | 427 kts | 213° |
| 2026-05-04 21:30 | 41.59584 | -70.92690 | 21904 ft | 426 kts | 213° |
| 2026-05-04 21:31 | 41.54539 | -70.96780 | 21893 ft | 419 kts | 228° |
| 2026-05-04 21:31 | 41.52618 | -70.99672 | 21942 ft | 416 kts | 234° |
| 2026-05-04 21:31 | 41.50792 | -71.02631 | 21926 ft | 416 kts | 234° |
| 2026-05-04 21:32 | 41.48947 | -71.05633 | 21914 ft | 415 kts | 235° |
| 2026-05-04 21:32 | 41.47129 | -71.08589 | 21925 ft | 414 kts | 235° |
| 2026-05-04 21:32 | 41.45309 | -71.11548 | 21917 ft | 415 kts | 235° |
| 2026-05-04 21:32 | 41.43476 | -71.14526 | 21919 ft | 414 kts | 235° |
| 2026-05-04 21:33 | 41.41648 | -71.17492 | 21926 ft | 415 kts | 235° |
| 2026-05-04 21:33 | 41.39829 | -71.20439 | 21933 ft | 415 kts | 235° |
| 2026-05-04 21:33 | 41.37979 | -71.23436 | 21921 ft | 415 kts | 234° |
| 2026-05-04 21:33 | 41.36151 | -71.26393 | 21929 ft | 414 kts | 234° |
| 2026-05-04 21:34 | 41.34334 | -71.29330 | 21926 ft | 414 kts | 234° |
| 2026-05-04 21:34 | 41.32485 | -71.32314 | 21929 ft | 415 kts | 234° |
| 2026-05-04 21:34 | 41.30647 | -71.35279 | 21928 ft | 415 kts | 235° |
| 2026-05-04 21:34 | 41.28804 | -71.38249 | 21933 ft | 414 kts | 234° |
| 2026-05-04 21:35 | 41.26968 | -71.41205 | 21932 ft | 414 kts | 235° |
| 2026-05-04 21:35 | 41.25147 | -71.44133 | 21934 ft | 414 kts | 235° |
| 2026-05-04 21:35 | 41.23311 | -71.47083 | 21945 ft | 414 kts | 235° |
| 2026-05-04 21:35 | 41.21474 | -71.50033 | 21941 ft | 414 kts | 235° |
| 2026-05-04 21:36 | 41.19635 | -71.52984 | 21941 ft | 414 kts | 234° |
| 2026-05-04 21:36 | 41.17823 | -71.55922 | 21936 ft | 411 kts | 238° |
| 2026-05-04 21:36 | 41.16624 | -71.59309 | 21959 ft | 400 kts | 259° |
| 2026-05-04 21:36 | 41.16102 | -71.62938 | 21956 ft | 400 kts | 264° |
| 2026-05-04 21:37 | 41.15643 | -71.66562 | 21944 ft | 399 kts | 263° |
| 2026-05-04 21:37 | 41.15187 | -71.70219 | 21939 ft | 401 kts | 263° |
| 2026-05-04 21:37 | 41.14729 | -71.73899 | 21944 ft | 398 kts | 263° |
| 2026-05-04 21:37 | 41.14278 | -71.77523 | 21944 ft | 400 kts | 263° |
| 2026-05-04 21:38 | 41.13828 | -71.81134 | 21939 ft | 400 kts | 263° |
| 2026-05-04 21:38 | 41.13368 | -71.84809 | 21940 ft | 398 kts | 263° |
| 2026-05-04 21:38 | 41.12918 | -71.88400 | 21935 ft | 390 kts | 264° |
| 2026-05-04 21:38 | 41.12481 | -71.91878 | 21940 ft | 383 kts | 263° |
| 2026-05-04 21:39 | 41.12043 | -71.95354 | 21939 ft | 383 kts | 263° |
| 2026-05-04 21:39 | 41.11601 | -71.98857 | 21935 ft | 385 kts | 263° |
| 2026-05-04 21:39 | 41.11158 | -72.02361 | 21631 ft | 385 kts | 263° |
| 2026-05-04 21:39 | 41.10714 | -72.05854 | 21227 ft | 382 kts | 263° |
| 2026-05-04 21:40 | 41.10274 | -72.09312 | 20804 ft | 379 kts | 263° |
| 2026-05-04 21:40 | 41.09751 | -72.12714 | 20381 ft | 379 kts | 256° |
| 2026-05-04 21:40 | 41.08956 | -72.15984 | 19987 ft | 376 kts | 255° |
| 2026-05-04 21:40 | 41.08136 | -72.19302 | 19566 ft | 373 kts | 255° |
| 2026-05-04 21:41 | 41.07330 | -72.22560 | 19154 ft | 371 kts | 255° |
| 2026-05-04 21:41 | 41.06532 | -72.25779 | 18755 ft | 370 kts | 255° |
| 2026-05-04 21:41 | 41.05731 | -72.29006 | 18345 ft | 366 kts | 254° |
| 2026-05-04 21:41 | 41.04946 | -72.32166 | 17944 ft | 364 kts | 255° |
| 2026-05-04 21:42 | 41.04152 | -72.35356 | 17553 ft | 361 kts | 254° |
| 2026-05-04 21:42 | 41.03369 | -72.38499 | 17141 ft | 361 kts | 254° |
| 2026-05-04 21:42 | 41.02583 | -72.41649 | 16756 ft | 358 kts | 254° |
| 2026-05-04 21:42 | 41.01806 | -72.44759 | 16360 ft | 355 kts | 254° |
| 2026-05-04 21:43 | 41.01039 | -72.47827 | 15946 ft | 354 kts | 254° |
| 2026-05-04 21:43 | 41.00269 | -72.50900 | 15581 ft | 352 kts | 254° |
| 2026-05-04 21:43 | 40.99498 | -72.53976 | 15190 ft | 350 kts | 255° |
| 2026-05-04 21:43 | 40.98741 | -72.56989 | 14814 ft | 345 kts | 254° |
| 2026-05-04 21:44 | 40.97998 | -72.59940 | 14448 ft | 328 kts | 255° |
| 2026-05-04 21:44 | 40.97297 | -72.62722 | 14111 ft | 314 kts | 255° |
| 2026-05-04 21:44 | 40.96619 | -72.65410 | 13787 ft | 301 kts | 254° |
| 2026-05-04 21:44 | 40.95971 | -72.67982 | 13462 ft | 290 kts | 254° |
| 2026-05-04 21:45 | 40.95346 | -72.70455 | 13169 ft | 280 kts | 255° |
| 2026-05-04 21:45 | 40.94738 | -72.72863 | 12864 ft | 274 kts | 254° |
| 2026-05-04 21:45 | 40.94136 | -72.75242 | 12573 ft | 273 kts | 254° |
| 2026-05-04 21:45 | 40.93534 | -72.77621 | 12278 ft | 275 kts | 254° |
| 2026-05-04 21:46 | 40.92692 | -72.79895 | 11965 ft | 282 kts | 231° |
| 2026-05-04 21:46 | 40.91174 | -72.81561 | 11807 ft | 288 kts | 221° |
| 2026-05-04 21:46 | 40.89559 | -72.83134 | 11431 ft | 287 kts | 221° |
| 2026-05-04 21:46 | 40.87966 | -72.84673 | 11066 ft | 285 kts | 221° |
| 2026-05-04 21:47 | 40.86382 | -72.86196 | 10694 ft | 282 kts | 220° |
| 2026-05-04 21:47 | 40.84798 | -72.87718 | 10323 ft | 280 kts | 220° |
| 2026-05-04 21:47 | 40.83238 | -72.89214 | 9952 ft | 278 kts | 220° |
| 2026-05-04 21:47 | 40.81672 | -72.90715 | 9570 ft | 276 kts | 220° |
| 2026-05-04 21:48 | 40.80139 | -72.92182 | 9260 ft | 273 kts | 221° |
| 2026-05-04 21:48 | 40.78598 | -72.93658 | 9028 ft | 270 kts | 220° |
| 2026-05-04 21:48 | 40.77087 | -72.95102 | 9009 ft | 269 kts | 220° |
| 2026-05-04 21:48 | 40.75552 | -72.96570 | 9001 ft | 272 kts | 220° |
| 2026-05-04 21:49 | 40.74033 | -72.98021 | 8995 ft | 272 kts | 220° |
| 2026-05-04 21:49 | 40.72500 | -72.99485 | 8797 ft | 274 kts | 220° |
| 2026-05-04 21:49 | 40.70957 | -73.00956 | 8594 ft | 273 kts | 220° |
| 2026-05-04 21:49 | 40.69473 | -73.02480 | 8386 ft | 268 kts | 233° |
| 2026-05-04 21:50 | 40.68711 | -73.04639 | 8227 ft | 260 kts | 265° |
| 2026-05-04 21:50 | 40.68632 | -73.06992 | 8067 ft | 259 kts | 270° |
| 2026-05-04 21:50 | 40.68614 | -73.09377 | 7869 ft | 259 kts | 270° |
| 2026-05-04 21:50 | 40.68612 | -73.11740 | 7667 ft | 257 kts | 270° |
| 2026-05-04 21:51 | 40.68617 | -73.14083 | 7470 ft | 258 kts | 270° |
| 2026-05-04 21:51 | 40.68625 | -73.16431 | 7273 ft | 256 kts | 270° |
| 2026-05-04 21:51 | 40.68635 | -73.18797 | 7074 ft | 256 kts | 270° |
| 2026-05-04 21:51 | 40.68645 | -73.21126 | 6877 ft | 254 kts | 270° |
| 2026-05-04 21:52 | 40.68655 | -73.23449 | 6680 ft | 253 kts | 271° |
| 2026-05-04 21:52 | 40.68665 | -73.25771 | 6480 ft | 253 kts | 270° |
| 2026-05-04 21:52 | 40.68675 | -73.28086 | 6281 ft | 254 kts | 270° |
| 2026-05-04 21:52 | 40.68684 | -73.30400 | 6086 ft | 252 kts | 270° |
| 2026-05-04 21:53 | 40.68692 | -73.32711 | 5889 ft | 252 kts | 270° |
| 2026-05-04 21:53 | 40.68858 | -73.34998 | 5680 ft | 254 kts | 290° |
| 2026-05-04 21:53 | 40.69899 | -73.36836 | 5540 ft | 259 kts | 315° |
| 2026-05-04 21:53 | 40.71300 | -73.38379 | 5362 ft | 261 kts | 317° |
| 2026-05-04 21:54 | 40.72704 | -73.39896 | 5166 ft | 261 kts | 317° |
| 2026-05-04 21:54 | 40.74106 | -73.41403 | 4967 ft | 261 kts | 317° |
| 2026-05-04 21:54 | 40.75514 | -73.42909 | 4767 ft | 261 kts | 317° |
| 2026-05-04 21:54 | 40.76918 | -73.44411 | 4567 ft | 261 kts | 317° |
| 2026-05-04 21:55 | 40.78328 | -73.45920 | 4370 ft | 261 kts | 317° |
| 2026-05-04 21:55 | 40.79550 | -73.47623 | 4160 ft | 254 kts | 292° |
| 2026-05-04 21:55 | 40.79877 | -73.49854 | 4051 ft | 248 kts | 269° |
| 2026-05-04 21:55 | 40.79844 | -73.52132 | 3780 ft | 248 kts | 267° |
| 2026-05-04 21:56 | 40.79799 | -73.54394 | 3457 ft | 248 kts | 267° |
| 2026-05-04 21:56 | 40.79762 | -73.56647 | 3116 ft | 246 kts | 267° |
| 2026-05-04 21:56 | 40.79732 | -73.58926 | 2774 ft | 245 kts | 267° |
| 2026-05-04 21:56 | 40.79419 | -73.61086 | 2438 ft | 241 kts | 242° |
| 2026-05-04 21:57 | 40.78571 | -73.62958 | 2137 ft | 241 kts | 237° |
| 2026-05-04 21:57 | 40.77623 | -73.64749 | 1984 ft | 236 kts | 227° |
| 2026-05-04 21:57 | 40.76306 | -73.66091 | 1984 ft | 240 kts | 213° |
| 2026-05-04 21:57 | 40.74880 | -73.67207 | 1974 ft | 236 kts | 212° |
| 2026-05-04 21:58 | 40.73518 | -73.68254 | 1948 ft | 218 kts | 213° |
| 2026-05-04 21:58 | 40.72301 | -73.69302 | 1941 ft | 200 kts | 213° |
| 2026-05-04 21:58 | 40.71143 | -73.70232 | 1806 ft | 190 kts | 213° |
| 2026-05-04 21:58 | 40.70034 | -73.71135 | 1647 ft | 179 kts | 213° |
| 2026-05-04 21:59 | 40.69056 | -73.71938 | 1555 ft | 149 kts | 213° |
| 2026-05-04 21:59 | 40.68221 | -73.72605 | 1297 ft | 138 kts | 211° |
| 2026-05-04 21:59 | 40.67437 | -73.73208 | 1070 ft | 122 kts | 211° |
| 2026-05-04 21:59 | 40.66711 | -73.73795 | 860 ft | 126 kts | 211° |
| 2026-05-04 22:00 | 40.65958 | -73.74389 | 609 ft | 127 kts | 208° |
| 2026-05-04 22:00 | 40.65207 | -73.74956 | 326 ft | 124 kts | 209° |
| 2026-05-04 22:00 | 40.64473 | -73.75529 | 55 ft | 122 kts | 207° |
| 2026-05-04 22:00 | 40.63797 | -73.76054 | 14 ft | 94 kts | 210° |
| 2026-05-04 22:01 | 40.63368 | -73.76392 | 14 ft | 53 kts | 214° |
| 2026-05-04 22:01 | 40.63234 | -73.76668 | 12 ft | 25 kts | 269° |
| 2026-05-04 22:01 | 40.63300 | -73.76855 | 10 ft | 22 kts | 301° |
| 2026-05-04 22:01 | 40.63379 | -73.77027 | 11 ft | 21 kts | 300° |
| 2026-05-04 22:02 | 40.63455 | -73.77196 | 13 ft | 20 kts | 302° |
| 2026-05-04 22:02 | 40.63526 | -73.77350 | 14 ft | 11 kts | 301° |
| 2026-05-04 22:02 | 40.63538 | -73.77376 | 14 ft | 0 kts | 300° |
| 2026-05-04 22:06 | 40.63540 | -73.77381 | 14 ft | 2 kts | 300° |
| 2026-05-04 22:06 | 40.63557 | -73.77421 | 14 ft | 8 kts | 299° |
| 2026-05-04 22:07 | 40.63599 | -73.77515 | 14 ft | 15 kts | 302° |
| 2026-05-04 22:07 | 40.63669 | -73.77644 | 14 ft | 15 kts | 324° |
| 2026-05-04 22:07 | 40.63772 | -73.77685 | 14 ft | 15 kts | 331° |
| 2026-05-04 22:07 | 40.63863 | -73.77768 | 14 ft | 16 kts | 324° |
| 2026-05-04 22:08 | 40.63960 | -73.77850 | 14 ft | 16 kts | 327° |
| 2026-05-04 22:08 | 40.64054 | -73.77869 | 14 ft | 13 kts | 51° |
| 2026-05-04 22:08 | 40.64101 | -73.77760 | 14 ft | 13 kts | 62° |
| 2026-05-04 22:08 | 40.64147 | -73.77647 | 14 ft | 14 kts | 63° |
| 2026-05-04 22:09 | 40.64205 | -73.77573 | 14 ft | 11 kts | 352° |
| 2026-05-04 22:09 | 40.64242 | -73.77622 | 14 ft | 5 kts | 244° |
| 2026-05-04 22:09 | 40.64228 | -73.77670 | 14 ft | 6 kts | 251° |
| 2026-05-04 22:09 | 40.64223 | -73.77691 | 14 ft | 0 kts | 248° |
| 2026-05-04 22:10 | 40.64223 | -73.77692 | 14 ft | 0 kts | 248° |
| 2026-05-04 22:16 | 40.64222 | -73.77692 | 14 ft | 0 kts | 248° |
| 2026-05-04 22:16 | 40.64223 | -73.77692 | 14 ft | 0 kts | 248° |
| 2026-05-04 22:18 | 40.64222 | -73.77692 | 14 ft | 0 kts | 248° |
| 2026-05-04 22:18 | 40.64223 | -73.77692 | 14 ft | 0 kts | 248° |
| 2026-05-04 22:20 | 40.64222 | -73.77692 | 14 ft | 0 kts | 248° |
| 2026-05-04 22:21 | 40.64223 | -73.77692 | 14 ft | 0 kts | 248° |
| 2026-05-04 22:22 | 40.64222 | -73.77692 | 14 ft | 0 kts | 248° |
| 2026-05-04 22:23 | 40.64223 | -73.77692 | 14 ft | 0 kts | 248° |